Pastebin launched a little side project called HostCabi.net, check it out ;-)Don't like ads? PRO users don't see any ads ;-)
Guest

Addon.py Error

By: a guest on Sep 27th, 2011  |  syntax: None  |  size: 40.08 KB  |  hits: 48  |  expires: Never
download  |  raw  |  embed  |  report abuse  |  print
Text below is selected. Please press Ctrl+C to copy to your clipboard. (⌘+C on Mac)
  1. 06:06:29 T:4316 M:1670238208  NOTICE: -----------------------------------------------------------------------
  2. 06:06:29 T:4316 M:1670201344  NOTICE: Starting XBMC, Platform: Windows 7, 32-bit Service Pack 1 build 7601. Built on Mar  8 2011 (Git:e9e9099, compiler 1500)
  3. 06:06:29 T:4316 M:1670201344  NOTICE: Intel(R) Pentium(R) CPU G620 @ 2.60GHz
  4. 06:06:29 T:4316 M:1670197248  NOTICE: Desktop Resolution: 1920x1080 32Bit at 59Hz
  5. 06:06:29 T:4316 M:1670197248  NOTICE: Running with administrator rights
  6. 06:06:29 T:4316 M:1670197248  NOTICE: special://xbmc/ is mapped to: C:\Program Files\XBMC
  7. 06:06:29 T:4316 M:1670197248  NOTICE: special://xbmcbin/ is mapped to: C:\Program Files\XBMC
  8. 06:06:29 T:4316 M:1670197248  NOTICE: special://masterprofile/ is mapped to: C:\Users\WebTV\AppData\Roaming\XBMC\userdata
  9. 06:06:29 T:4316 M:1670197248  NOTICE: special://home/ is mapped to: C:\Users\WebTV\AppData\Roaming\XBMC
  10. 06:06:29 T:4316 M:1670197248  NOTICE: special://temp/ is mapped to: C:\Users\WebTV\AppData\Roaming\XBMC\cache
  11. 06:06:29 T:4316 M:1670197248  NOTICE: The executable running is: C:\Program Files\XBMC\XBMC.exe
  12. 06:06:29 T:4316 M:1670197248  NOTICE: Log File is located: C:\Users\WebTV\AppData\Roaming\XBMC\xbmc.log
  13. 06:06:29 T:4316 M:1670197248  NOTICE: -----------------------------------------------------------------------
  14. 06:06:29 T:4316 M:1670176768  NOTICE: Setup SDL
  15. 06:06:30 T:4316 M:1665355776  NOTICE: Found screen: Generic PnP Monitor on Intel(R) HD Graphics Family, adapter 0.
  16. 06:06:30 T:4316 M:1665351680  NOTICE: Primary mode: 1920x1080 @ 59.94 - Full Screen
  17. 06:06:30 T:4316 M:1662889984  NOTICE: Additional mode: 320x200 @ 70.00 - Full Screen
  18. 06:06:30 T:4316 M:1662615552  NOTICE: Previous line repeats 2 times.
  19. 06:06:30 T:4316 M:1662615552  NOTICE: Additional mode: 320x240 @ 70.00 - Full Screen
  20. 06:06:30 T:4316 M:1662611456  NOTICE: Previous line repeats 2 times.
  21. 06:06:30 T:4316 M:1662611456  NOTICE: Additional mode: 400x300 @ 70.00 - Full Screen
  22. 06:06:30 T:4316 M:1662611456  NOTICE: Previous line repeats 2 times.
  23. 06:06:30 T:4316 M:1662611456  NOTICE: Additional mode: 512x384 @ 70.00 - Full Screen
  24. 06:06:30 T:4316 M:1662611456  NOTICE: Previous line repeats 2 times.
  25. 06:06:30 T:4316 M:1662611456  NOTICE: Additional mode: 640x400 @ 70.00 - Full Screen
  26. 06:06:30 T:4316 M:1662611456  NOTICE: Previous line repeats 2 times.
  27. 06:06:30 T:4316 M:1662611456  NOTICE: Additional mode: 640x480 @ 59.94 - Full Screen
  28. 06:06:30 T:4316 M:1662681088  NOTICE: Previous line repeats 2 times.
  29. 06:06:30 T:4316 M:1662681088  NOTICE: Additional mode: 640x480 @ 60.00 - Full Screen
  30. 06:06:30 T:4316 M:1662603264  NOTICE: Previous line repeats 2 times.
  31. 06:06:30 T:4316 M:1662603264  NOTICE: Additional mode: 640x480 @ 70.00 - Full Screen
  32. 06:06:30 T:4316 M:1662599168  NOTICE: Previous line repeats 2 times.
  33. 06:06:30 T:4316 M:1662599168  NOTICE: Additional mode: 640x480 @ 73.00 - Full Screen
  34. 06:06:30 T:4316 M:1662603264  NOTICE: Additional mode: 640x480 @ 72.00 - Full Screen
  35. 06:06:30 T:4316 M:1662603264  NOTICE: Previous line repeats 2 times.
  36. 06:06:30 T:4316 M:1662603264  NOTICE: Additional mode: 640x480 @ 75.00 - Full Screen
  37. 06:06:30 T:4316 M:1662730240  NOTICE: Previous line repeats 2 times.
  38. 06:06:30 T:4316 M:1662730240  NOTICE: Additional mode: 720x480 @ 59.94 - Full Screen
  39. 06:06:30 T:4316 M:1662672896  NOTICE: Previous line repeats 2 times.
  40. 06:06:30 T:4316 M:1662672896  NOTICE: Additional mode: 720x480 @ 29.97i - Full Screen
  41. 06:06:30 T:4316 M:1662603264  NOTICE: Previous line repeats 2 times.
  42. 06:06:30 T:4316 M:1662603264  NOTICE: Additional mode: 720x480 @ 60.00 - Full Screen
  43. 06:06:30 T:4316 M:1662603264  NOTICE: Previous line repeats 2 times.
  44. 06:06:30 T:4316 M:1662603264  NOTICE: Additional mode: 720x480 @ 30.00i - Full Screen
  45. 06:06:30 T:4316 M:1662595072  NOTICE: Previous line repeats 2 times.
  46. 06:06:30 T:4316 M:1662595072  NOTICE: Additional mode: 800x600 @ 60.00 - Full Screen
  47. 06:06:30 T:4316 M:1662590976  NOTICE: Additional mode: 800x600 @ 59.94 - Full Screen
  48. 06:06:30 T:4316 M:1662590976  NOTICE: Previous line repeats 2 times.
  49. 06:06:30 T:4316 M:1662590976  NOTICE: Additional mode: 800x600 @ 60.00 - Full Screen
  50. 06:06:30 T:4316 M:1662590976  NOTICE: Previous line repeats 1 times.
  51. 06:06:30 T:4316 M:1662590976  NOTICE: Additional mode: 800x600 @ 72.00 - Full Screen
  52. 06:06:30 T:4316 M:1662590976  NOTICE: Additional mode: 800x600 @ 75.00 - Full Screen
  53. 06:06:30 T:4316 M:1662586880  NOTICE: Previous line repeats 2 times.
  54. 06:06:30 T:4316 M:1662586880  NOTICE: Additional mode: 1024x768 @ 59.94 - Full Screen
  55. 06:06:30 T:4316 M:1662590976  NOTICE: Previous line repeats 2 times.
  56. 06:06:30 T:4316 M:1662590976  NOTICE: Additional mode: 1024x768 @ 60.00 - Full Screen
  57. 06:06:30 T:4316 M:1662590976  NOTICE: Previous line repeats 2 times.
  58. 06:06:30 T:4316 M:1662590976  NOTICE: Additional mode: 1024x768 @ 70.00 - Full Screen
  59. 06:06:30 T:4316 M:1662590976  NOTICE: Additional mode: 1024x768 @ 75.00 - Full Screen
  60. 06:06:30 T:4316 M:1662521344  NOTICE: Additional mode: 1152x864 @ 60.00 - Full Screen
  61. 06:06:30 T:4316 M:1662521344  NOTICE: Previous line repeats 2 times.
  62. 06:06:30 T:4316 M:1662521344  NOTICE: Additional mode: 1184x666 @ 59.94 - Full Screen
  63. 06:06:30 T:4316 M:1662590976  NOTICE: Previous line repeats 2 times.
  64. 06:06:30 T:4316 M:1662590976  NOTICE: Additional mode: 1184x666 @ 60.00 - Full Screen
  65. 06:06:30 T:4316 M:1662660608  NOTICE: Previous line repeats 2 times.
  66. 06:06:30 T:4316 M:1662660608  NOTICE: Additional mode: 1280x600 @ 60.00 - Full Screen
  67. 06:06:30 T:4316 M:1662590976  NOTICE: Previous line repeats 2 times.
  68. 06:06:30 T:4316 M:1662590976  NOTICE: Additional mode: 1280x720 @ 59.94 - Full Screen
  69. 06:06:30 T:4316 M:1662590976  NOTICE: Previous line repeats 2 times.
  70. 06:06:30 T:4316 M:1662590976  NOTICE: Additional mode: 1280x720 @ 60.00 - Full Screen
  71. 06:06:30 T:4316 M:1662586880  NOTICE: Previous line repeats 2 times.
  72. 06:06:30 T:4316 M:1662586880  NOTICE: Additional mode: 1280x768 @ 60.00 - Full Screen
  73. 06:06:30 T:4316 M:1662656512  NOTICE: Previous line repeats 2 times.
  74. 06:06:30 T:4316 M:1662656512  NOTICE: Additional mode: 1280x800 @ 60.00 - Full Screen
  75. 06:06:30 T:4316 M:1662865408  NOTICE: Previous line repeats 2 times.
  76. 06:06:30 T:4316 M:1662865408  NOTICE: Additional mode: 1280x960 @ 60.00 - Full Screen
  77. 06:06:30 T:4316 M:1662586880  NOTICE: Previous line repeats 2 times.
  78. 06:06:30 T:4316 M:1662586880  NOTICE: Additional mode: 1280x1024 @ 59.94 - Full Screen
  79. 06:06:30 T:4316 M:1662517248  NOTICE: Previous line repeats 2 times.
  80. 06:06:30 T:4316 M:1662517248  NOTICE: Additional mode: 1280x1024 @ 60.00 - Full Screen
  81. 06:06:30 T:4316 M:1662586880  NOTICE: Previous line repeats 2 times.
  82. 06:06:30 T:4316 M:1662586880  NOTICE: Additional mode: 1360x768 @ 59.94 - Full Screen
  83. 06:06:30 T:4316 M:1662586880  NOTICE: Previous line repeats 2 times.
  84. 06:06:30 T:4316 M:1662586880  NOTICE: Additional mode: 1360x768 @ 60.00 - Full Screen
  85. 06:06:30 T:4316 M:1662586880  NOTICE: Previous line repeats 2 times.
  86. 06:06:30 T:4316 M:1662586880  NOTICE: Additional mode: 1366x768 @ 60.00 - Full Screen
  87. 06:06:30 T:4316 M:1662586880  NOTICE: Previous line repeats 2 times.
  88. 06:06:30 T:4316 M:1662586880  NOTICE: Additional mode: 1400x1050 @ 59.94 - Full Screen
  89. 06:06:30 T:4316 M:1662517248  NOTICE: Previous line repeats 2 times.
  90. 06:06:30 T:4316 M:1662517248  NOTICE: Additional mode: 1400x1050 @ 60.00 - Full Screen
  91. 06:06:30 T:4316 M:1662586880  NOTICE: Previous line repeats 2 times.
  92. 06:06:30 T:4316 M:1662586880  NOTICE: Additional mode: 1440x480 @ 30.00i - Full Screen
  93. 06:06:30 T:4316 M:1662582784  NOTICE: Previous line repeats 2 times.
  94. 06:06:30 T:4316 M:1662582784  NOTICE: Additional mode: 1440x900 @ 60.00 - Full Screen
  95. 06:06:30 T:4316 M:1662586880  NOTICE: Previous line repeats 2 times.
  96. 06:06:30 T:4316 M:1662586880  NOTICE: Additional mode: 1600x900 @ 60.00 - Full Screen
  97. 06:06:30 T:4316 M:1662521344  NOTICE: Previous line repeats 1 times.
  98. 06:06:30 T:4316 M:1662521344  NOTICE: Additional mode: 1600x1200 @ 59.94 - Full Screen
  99. 06:06:30 T:4316 M:1662582784  NOTICE: Additional mode: 1600x1200 @ 60.00 - Full Screen
  100. 06:06:30 T:4316 M:1662586880  NOTICE: Additional mode: 1680x1050 @ 60.00 - Full Screen
  101. 06:06:30 T:4316 M:1662566400  NOTICE: Previous line repeats 2 times.
  102. 06:06:30 T:4316 M:1662566400  NOTICE: Additional mode: 1776x1000 @ 29.97 - Full Screen
  103. 06:06:30 T:4316 M:1662586880  NOTICE: Previous line repeats 2 times.
  104. 06:06:30 T:4316 M:1662586880  NOTICE: Additional mode: 1776x1000 @ 30.00 - Full Screen
  105. 06:06:30 T:4316 M:1662586880  NOTICE: Previous line repeats 2 times.
  106. 06:06:30 T:4316 M:1662586880  NOTICE: Additional mode: 1776x1000 @ 59.94 - Full Screen
  107. 06:06:30 T:4316 M:1662586880  NOTICE: Previous line repeats 2 times.
  108. 06:06:30 T:4316 M:1662586880  NOTICE: Additional mode: 1776x1000 @ 29.97i - Full Screen
  109. 06:06:30 T:4316 M:1662537728  NOTICE: Previous line repeats 2 times.
  110. 06:06:30 T:4316 M:1662537728  NOTICE: Additional mode: 1776x1000 @ 60.00 - Full Screen
  111. 06:06:30 T:4316 M:1662623744  NOTICE: Previous line repeats 2 times.
  112. 06:06:30 T:4316 M:1662623744  NOTICE: Additional mode: 1776x1000 @ 30.00i - Full Screen
  113. 06:06:30 T:4316 M:1662570496  NOTICE: Previous line repeats 2 times.
  114. 06:06:30 T:4316 M:1662570496  NOTICE: Additional mode: 1920x1080 @ 29.97 - Full Screen
  115. 06:06:30 T:4316 M:1662640128  NOTICE: Additional mode: 1920x1080 @ 30.00 - Full Screen
  116. 06:06:30 T:4316 M:1662640128  NOTICE: Additional mode: 1920x1080 @ 59.94 - Full Screen
  117. 06:06:30 T:4316 M:1662570496  NOTICE: Additional mode: 1920x1080 @ 29.97i - Full Screen
  118. 06:06:30 T:4316 M:1662570496  NOTICE: Additional mode: 1920x1080 @ 60.00 - Full Screen
  119. 06:06:30 T:4316 M:1662570496  NOTICE: Additional mode: 1920x1080 @ 30.00i - Full Screen
  120. 06:06:30 T:4316 M:1663217664  NOTICE: load settings...
  121. 06:06:30 T:4316 M:1663188992  NOTICE: special://profile/ is mapped to: special://masterprofile/
  122. 06:06:30 T:4316 M:1663180800  NOTICE: loading special://masterprofile/guisettings.xml
  123. 06:06:30 T:4316 M:1664409600  NOTICE: Getting hardware information now...
  124. 06:06:30 T:4316 M:1664409600  NOTICE: Checking resolution 12
  125. 06:06:30 T:4316 M:1664397312  NOTICE: Loading player core factory settings from special://xbmc/system/playercorefactory.xml.
  126. 06:06:30 T:4316 M:1664372736  NOTICE: Loaded playercorefactory configuration
  127. 06:06:30 T:4316 M:1664372736  NOTICE: Loading player core factory settings from special://masterprofile/playercorefactory.xml.
  128. 06:06:30 T:4316 M:1664372736  NOTICE: special://masterprofile/playercorefactory.xml does not exist. Skipping.
  129. 06:06:30 T:4316 M:1664372736  NOTICE: No advancedsettings.xml to load (special://masterprofile/advancedsettings.xml)
  130. 06:06:30 T:4316 M:1664372736  NOTICE: Default DVD Player: dvdplayer
  131. 06:06:30 T:4316 M:1664372736  NOTICE: Default Video Player: dvdplayer
  132. 06:06:30 T:4316 M:1664372736  NOTICE: Default Audio Player: paplayer
  133. 06:06:30 T:4316 M:1664442368  NOTICE: Loading media sources from special://masterprofile/sources.xml
  134. 06:06:32 T:4316 M:1626652672  NOTICE: initializing playlistplayer
  135. 06:06:32 T:4316 M:1626652672  NOTICE: DONE initializing playlistplayer
  136. 06:06:33 T:4316 M:1619587072  NOTICE: initialize done
  137. 06:06:33 T:4316 M:1619587072  NOTICE: Running the application...
  138. 06:06:33 T:4316 M:1619398656  NOTICE: ES: Starting event server
  139. 06:06:33 T:4760 M:1619345408  NOTICE: ES: Starting UDP Event server on 127.0.0.1:9777
  140. 06:06:33 T:4760 M:1619316736  NOTICE: UDP: Listening on port 9777
  141. 06:06:39 T:5336 M:1506025472 WARNING: XFILE::CFileFactory::CreateLoader - Unsupported protocol(addons) in addons://more/executable.tbn
  142. 06:06:58 T:5768 M:1880698880 WARNING: XFILE::CFileCurl::CReadState::FillBuffer: curl failed with code 22
  143. 06:06:58 T:5768 M:1880698880   ERROR: CFileCurl::CReadState::Open, didn't get any data from stream.
  144. 06:07:00 T:5816 M:1876189184 WARNING: XFILE::CFileCurl::CReadState::FillBuffer: curl failed with code 22
  145. 06:07:00 T:5816 M:1876164608   ERROR: CFileCurl::CReadState::Open, didn't get any data from stream.
  146. 06:07:39 T:4316 M:1844547584  NOTICE: DVDPlayer: Opening: http://192.168.1.102:63478/pbskids-fdac5384-876e-40d1-a829-cc84d1068bf0/1-pbskids-fdac5384-876e-40d1-a829-cc84d1068bf0.mpg
  147. 06:07:39 T:4316 M:1844547584 WARNING: CDVDMessageQueue(player)::Put MSGQ_NOT_INITIALIZED
  148. 06:07:39 T:5936 M:1844547584  NOTICE: Creating InputStream
  149. 06:07:54 T:5936 M:1725681664  NOTICE: Creating Demuxer
  150. 06:07:59 T:5936 M:1704681472  NOTICE: Opening video stream: 0 source: 256
  151. 06:07:59 T:5936 M:1704681472  NOTICE: Creating video codec with codec id: 2
  152. 06:08:00 T:5936 M:1704714240  NOTICE: CDVDVideoCodecFFmpeg::Open() Using codec: MPEG-2 video
  153. 06:08:00 T:5936 M:1704714240  NOTICE: Creating video thread
  154. 06:08:00 T:5936 M:1704714240  NOTICE: Opening audio stream: 1 source: 256
  155. 06:08:00 T:5936 M:1704714240  NOTICE: Finding audio codec for: 86016
  156. 06:08:00 T:5936 M:1704845312  NOTICE: Creating audio thread
  157. 06:08:00 T:3164 M:1704845312  NOTICE: running thread: CDVDPlayerAudio::Process()
  158. 06:08:00 T:3164 M:1705070592  NOTICE: Creating audio device with codec id: 86016, channels: 2, sample rate: 44100, no pass-through
  159. 06:08:00 T:4348 M:1704972288  NOTICE: running thread: video_thread
  160. 06:08:00 T:4348 M:1703317504  NOTICE:  fps: 29.970030, pwidth: 480, pheight: 360, dwidth: 480, dheight: 360
  161. 06:08:00 T:4348 M:1703292928  NOTICE: Display resolution DESKTOP : 1920x1080 @ 59.94 - Full Screen (12)
  162. 06:08:00 T:4316 M:1702965248  NOTICE: DVDPlayer: Opening: http://192.168.1.102:63478/pbskids-fdac5384-876e-40d1-a829-cc84d1068bf0/1-pbskids-fdac5384-876e-40d1-a829-cc84d1068bf0.mpg
  163. 06:08:00 T:4316 M:1702965248  NOTICE: CDVDPlayer::CloseFile()
  164. 06:08:00 T:4316 M:1701830656  NOTICE: DVDPlayer: waiting for threads to exit
  165. 06:08:00 T:5936 M:1701142528  NOTICE: CDVDPlayer::OnExit()
  166. 06:08:00 T:5936 M:1701142528  NOTICE: DVDPlayer: closing audio stream
  167. 06:08:00 T:5936 M:1701142528  NOTICE: Closing audio stream
  168. 06:08:00 T:5936 M:1701142528  NOTICE: Waiting for audio thread to exit
  169. 06:08:00 T:3164 M:1701130240   ERROR: CDVDAudio::AddPackets - failed to add leftover bytes to render
  170. 06:08:00 T:3164 M:1701130240  NOTICE: thread end: CDVDPlayerAudio::OnExit()
  171. 06:08:00 T:5936 M:1701146624  NOTICE: Closing audio device
  172. 06:08:00 T:5936 M:1701142528  NOTICE: Deleting audio codec
  173. 06:08:00 T:5936 M:1701142528  NOTICE: DVDPlayer: closing video stream
  174. 06:08:00 T:5936 M:1701142528  NOTICE: Closing video stream
  175. 06:08:00 T:5936 M:1701142528  NOTICE: waiting for video thread to exit
  176. 06:08:00 T:4348 M:1701142528  NOTICE: thread end: video_thread
  177. 06:08:00 T:5936 M:1702490112  NOTICE: deleting video codec
  178. 06:08:00 T:5936 M:1703243776  NOTICE: CDVDPlayer::OnExit() deleting demuxer
  179. 06:08:00 T:5936 M:1703452672  NOTICE: CDVDPlayer::OnExit() deleting input stream
  180. 06:08:00 T:4316 M:1711017984  NOTICE: DVDPlayer: finished waiting
  181. 06:08:00 T:4316 M:1711017984 WARNING: CDVDMessageQueue(player)::Put MSGQ_NOT_INITIALIZED
  182. 06:08:00 T:2404 M:1711017984  NOTICE: Creating InputStream
  183. 06:08:00 T:2404 M:1709760512  NOTICE: Creating Demuxer
  184. 06:08:00 T:2404 M:1709703168  NOTICE: Opening video stream: 0 source: 256
  185. 06:08:00 T:2404 M:1709703168  NOTICE: Creating video codec with codec id: 2
  186. 06:08:00 T:2404 M:1709703168  NOTICE: CDVDVideoCodecFFmpeg::Open() Using codec: MPEG-2 video
  187. 06:08:00 T:2404 M:1709703168  NOTICE: Creating video thread
  188. 06:08:00 T:2404 M:1709699072  NOTICE: Opening audio stream: 1 source: 256
  189. 06:08:00 T:2404 M:1709699072  NOTICE: Finding audio codec for: 86016
  190. 06:08:00 T:2404 M:1709699072  NOTICE: Creating audio thread
  191. 06:08:00 T:2176 M:1709666304  NOTICE: running thread: CDVDPlayerAudio::Process()
  192. 06:08:00 T:2176 M:1709666304  NOTICE: Creating audio device with codec id: 86016, channels: 2, sample rate: 44100, no pass-through
  193. 06:08:00 T:2176 M:1709473792 WARNING: CDVDMessageQueue(audio)::Get - asked for new data packet, with nothing available
  194. 06:08:00 T:2408 M:1709465600  NOTICE: running thread: video_thread
  195. 06:08:00 T:2408 M:1707450368  NOTICE:  fps: 29.970030, pwidth: 480, pheight: 360, dwidth: 480, dheight: 360
  196. 06:08:00 T:2408 M:1707769856  NOTICE: Display resolution DESKTOP : 1920x1080 @ 59.94 - Full Screen (12)
  197. 06:08:00 T:2176 M:1707601920 WARNING: CDVDMessageQueue(audio)::Get - asked for new data packet, with nothing available
  198. 06:35:10 T:4316 M:1949286400  NOTICE: DVDPlayer: Opening: http://192.168.1.102:63478/pbskids-dd00cbec-d256-4039-8814-1d6f188a2344/1-pbskids-dd00cbec-d256-4039-8814-1d6f188a2344.mpg
  199. 06:35:10 T:4316 M:1949286400  NOTICE: CDVDPlayer::CloseFile()
  200. 06:35:10 T:4316 M:1949327360  NOTICE: DVDPlayer: waiting for threads to exit
  201. 06:35:10 T:2404 M:1949327360  NOTICE: CDVDPlayer::OnExit()
  202. 06:35:10 T:2404 M:1949327360  NOTICE: DVDPlayer: closing audio stream
  203. 06:35:10 T:2404 M:1949327360  NOTICE: Closing audio stream
  204. 06:35:10 T:2404 M:1949327360  NOTICE: Waiting for audio thread to exit
  205. 06:35:10 T:2176 M:1949327360   ERROR: CDVDAudio::AddPackets - failed to add leftover bytes to render
  206. 06:35:10 T:2176 M:1949327360  NOTICE: thread end: CDVDPlayerAudio::OnExit()
  207. 06:35:10 T:2404 M:1949339648  NOTICE: Closing audio device
  208. 06:35:10 T:2404 M:1949310976  NOTICE: Deleting audio codec
  209. 06:35:10 T:2404 M:1949310976  NOTICE: DVDPlayer: closing video stream
  210. 06:35:10 T:2404 M:1949310976  NOTICE: Closing video stream
  211. 06:35:10 T:2404 M:1949310976  NOTICE: waiting for video thread to exit
  212. 06:35:10 T:2408 M:1949487104  NOTICE: thread end: video_thread
  213. 06:35:10 T:2404 M:1952555008  NOTICE: deleting video codec
  214. 06:35:10 T:2404 M:1953538048  NOTICE: CDVDPlayer::OnExit() deleting demuxer
  215. 06:35:10 T:2404 M:1953583104  NOTICE: CDVDPlayer::OnExit() deleting input stream
  216. 06:35:10 T:4316 M:1963130880  NOTICE: DVDPlayer: finished waiting
  217. 06:35:10 T:4316 M:1963835392 WARNING: CDVDMessageQueue(player)::Put MSGQ_NOT_INITIALIZED
  218. 06:35:10 T:5876 M:1964265472  NOTICE: Creating InputStream
  219. 06:35:33 T:5876 M:1874575360  NOTICE: Creating Demuxer
  220. 06:35:38 T:5876 M:1870528512  NOTICE: Opening video stream: 0 source: 256
  221. 06:35:38 T:5876 M:1870528512  NOTICE: Creating video codec with codec id: 2
  222. 06:35:38 T:5876 M:1870528512  NOTICE: CDVDVideoCodecFFmpeg::Open() Using codec: MPEG-2 video
  223. 06:35:38 T:5876 M:1870528512  NOTICE: Creating video thread
  224. 06:35:38 T:5876 M:1870528512  NOTICE: Opening audio stream: 1 source: 256
  225. 06:35:38 T:5876 M:1870528512  NOTICE: Finding audio codec for: 86016
  226. 06:35:38 T:5876 M:1870479360  NOTICE: Creating audio thread
  227. 06:35:38 T:2904 M:1870417920  NOTICE: running thread: CDVDPlayerAudio::Process()
  228. 06:35:38 T:2904 M:1870405632  NOTICE: Creating audio device with codec id: 86016, channels: 2, sample rate: 44100, no pass-through
  229. 06:35:38 T:2988 M:1870213120  NOTICE: running thread: video_thread
  230. 06:35:38 T:2988 M:1869303808  NOTICE:  fps: 29.970030, pwidth: 480, pheight: 360, dwidth: 480, dheight: 360
  231. 06:35:38 T:2988 M:1868656640 WARNING: CRenderManager::Configure - timeout waiting for previous frame
  232. 06:35:38 T:2988 M:1868652544  NOTICE: Display resolution DESKTOP : 1920x1080 @ 59.94 - Full Screen (12)
  233. 06:35:38 T:4316 M:1868611584  NOTICE: DVDPlayer: Opening: http://192.168.1.102:63478/pbskids-dd00cbec-d256-4039-8814-1d6f188a2344/1-pbskids-dd00cbec-d256-4039-8814-1d6f188a2344.mpg
  234. 06:35:38 T:4316 M:1868611584  NOTICE: CDVDPlayer::CloseFile()
  235. 06:35:38 T:4316 M:1869049856  NOTICE: DVDPlayer: waiting for threads to exit
  236. 06:35:39 T:5876 M:1858834432  NOTICE: CDVDPlayer::OnExit()
  237. 06:35:39 T:5876 M:1858834432  NOTICE: DVDPlayer: closing audio stream
  238. 06:35:39 T:5876 M:1858834432  NOTICE: Closing audio stream
  239. 06:35:39 T:5876 M:1858834432  NOTICE: Waiting for audio thread to exit
  240. 06:35:39 T:2904 M:1858834432   ERROR: CDVDAudio::AddPackets - failed to add leftover bytes to render
  241. 06:35:39 T:2904 M:1858834432  NOTICE: thread end: CDVDPlayerAudio::OnExit()
  242. 06:35:39 T:5876 M:1858846720  NOTICE: Closing audio device
  243. 06:35:39 T:5876 M:1858846720  NOTICE: Deleting audio codec
  244. 06:35:39 T:5876 M:1859244032  NOTICE: DVDPlayer: closing video stream
  245. 06:35:39 T:5876 M:1859244032  NOTICE: Closing video stream
  246. 06:35:39 T:5876 M:1859244032  NOTICE: waiting for video thread to exit
  247. 06:35:39 T:2988 M:1859244032  NOTICE: thread end: video_thread
  248. 06:35:39 T:5876 M:1861410816  NOTICE: deleting video codec
  249. 06:35:39 T:5876 M:1862615040  NOTICE: CDVDPlayer::OnExit() deleting demuxer
  250. 06:35:39 T:5876 M:1862664192  NOTICE: CDVDPlayer::OnExit() deleting input stream
  251. 06:35:39 T:4316 M:1877831680  NOTICE: DVDPlayer: finished waiting
  252. 06:35:39 T:4316 M:1877831680 WARNING: CDVDMessageQueue(player)::Put MSGQ_NOT_INITIALIZED
  253. 06:35:39 T:2232 M:1877831680  NOTICE: Creating InputStream
  254. 06:35:39 T:2232 M:1877733376  NOTICE: Creating Demuxer
  255. 06:35:39 T:2232 M:1869545472  NOTICE: Opening video stream: 0 source: 256
  256. 06:35:39 T:2232 M:1869545472  NOTICE: Creating video codec with codec id: 2
  257. 06:35:39 T:2232 M:1869545472  NOTICE: CDVDVideoCodecFFmpeg::Open() Using codec: MPEG-2 video
  258. 06:35:39 T:2232 M:1869545472  NOTICE: Creating video thread
  259. 06:35:39 T:2232 M:1869545472  NOTICE: Opening audio stream: 1 source: 256
  260. 06:35:39 T:2232 M:1869545472  NOTICE: Finding audio codec for: 86016
  261. 06:35:39 T:2232 M:1869545472  NOTICE: Creating audio thread
  262. 06:35:39 T:4908 M:1869545472  NOTICE: running thread: CDVDPlayerAudio::Process()
  263. 06:35:39 T:4908 M:1869545472  NOTICE: Creating audio device with codec id: 86016, channels: 2, sample rate: 44100, no pass-through
  264. 06:35:39 T:4908 M:1869545472 WARNING: CDVDMessageQueue(audio)::Get - asked for new data packet, with nothing available
  265. 06:35:39 T:5268 M:1869922304  NOTICE: running thread: video_thread
  266. 06:35:39 T:5268 M:1869922304  NOTICE:  fps: 29.970030, pwidth: 480, pheight: 360, dwidth: 480, dheight: 360
  267. 06:35:39 T:5268 M:1869922304  NOTICE: Display resolution DESKTOP : 1920x1080 @ 59.94 - Full Screen (12)
  268. 06:37:09 T:4908 M:1952571392 WARNING: CDVDMessageQueue(audio)::Get - asked for new data packet, with nothing available
  269. 06:37:10 T:5268 M:1954361344 WARNING: CDVDMessageQueue(video)::Get - asked for new data packet, with nothing available
  270. 06:37:10 T:2232 M:1954361344  NOTICE: CDVDPlayer::OnExit()
  271. 06:37:10 T:2232 M:1954361344  NOTICE: DVDPlayer: eof, waiting for queues to empty
  272. 06:37:10 T:2232 M:1954361344  NOTICE: DVDPlayer: closing audio stream
  273. 06:37:10 T:2232 M:1954361344  NOTICE: Closing audio stream
  274. 06:37:10 T:2232 M:1954361344  NOTICE: CDVDMessageQueue(audio)::WaitUntilEmpty
  275. 06:37:10 T:2232 M:1954361344  NOTICE: Waiting for audio thread to exit
  276. 06:37:10 T:4908 M:1954361344  NOTICE: thread end: CDVDPlayerAudio::OnExit()
  277. 06:37:10 T:2232 M:1954373632  NOTICE: Closing audio device
  278. 06:37:10 T:2232 M:1954373632  NOTICE: Deleting audio codec
  279. 06:37:10 T:2232 M:1954373632  NOTICE: DVDPlayer: closing video stream
  280. 06:37:10 T:2232 M:1954373632  NOTICE: Closing video stream
  281. 06:37:10 T:2232 M:1954373632  NOTICE: CDVDMessageQueue(video)::WaitUntilEmpty
  282. 06:37:10 T:2232 M:1954373632  NOTICE: waiting for video thread to exit
  283. 06:37:10 T:5268 M:1954373632   ERROR: Got MSGQ_ABORT or MSGO_IS_ERROR return true
  284. 06:37:10 T:5268 M:1954373632  NOTICE: thread end: video_thread
  285. 06:37:10 T:2232 M:1954414592  NOTICE: deleting video codec
  286. 06:37:10 T:2232 M:1954705408  NOTICE: CDVDPlayer::OnExit() deleting demuxer
  287. 06:37:10 T:2232 M:1954754560  NOTICE: CDVDPlayer::OnExit() deleting input stream
  288. 06:37:10 T:4316 M:1964548096  NOTICE: CDVDPlayer::CloseFile()
  289. 06:37:10 T:4316 M:1964548096 WARNING: CDVDMessageQueue(player)::Put MSGQ_NOT_INITIALIZED
  290. 06:37:10 T:4316 M:1964548096  NOTICE: DVDPlayer: waiting for threads to exit
  291. 06:37:10 T:4316 M:1964548096  NOTICE: DVDPlayer: finished waiting
  292. 06:37:27 T:4228 M:1967149056 WARNING: XFILE::CFileCurl::CReadState::FillBuffer: curl failed with code 22
  293. 06:37:27 T:4228 M:1967149056   ERROR: CFileCurl::CReadState::Open, didn't get any data from stream.
  294. 06:37:53 T:4316 M:1970839552  NOTICE: DVDPlayer: Opening: http://192.168.1.102:63478/pbskids-dd00cbec-d256-4039-8814-1d6f188a2344/1-pbskids-dd00cbec-d256-4039-8814-1d6f188a2344.mpg
  295. 06:37:53 T:4316 M:1970839552 WARNING: CDVDMessageQueue(player)::Put MSGQ_NOT_INITIALIZED
  296. 06:37:53 T:572 M:1970839552  NOTICE: Creating InputStream
  297. 06:38:19 T:572 M:1927155712 WARNING: XFILE::CFileCurl::CReadState::FillBuffer: curl failed with code 28
  298. 06:38:19 T:572 M:1927155712   ERROR: CFileCurl::CReadState::Open, didn't get any data from stream.
  299. 06:38:19 T:572 M:1927155712   ERROR: XFILE::CFileCache::Open - failed to open source <http://192.168.1.102:63478/pbskids-dd00cbec-d256-4039-8814-1d6f188a2344/1-pbskids-dd00cbec-d256-4039-8814-1d6f188a2344.mpg>
  300. 06:38:19 T:572 M:1927172096   ERROR: CDVDPlayer::OpenInputStream - error opening [http://192.168.1.102:63478/pbskids-dd00cbec-d256-4039-8814-1d6f188a2344/1-pbskids-dd00cbec-d256-4039-8814-1d6f188a2344.mpg]
  301. 06:38:19 T:572 M:1927172096  NOTICE: CDVDPlayer::OnExit()
  302. 06:38:19 T:572 M:1927172096  NOTICE: CDVDPlayer::OnExit() deleting input stream
  303. 06:38:19 T:4316 M:1927176192   ERROR: Playlist Player: skipping unplayable item: 0, path [http://192.168.1.102:63478/pbskids-dd00cbec-d256-4039-8814-1d6f188a2344/1-pbskids-dd00cbec-d256-4039-8814-1d6f188a2344.mpg]
  304. 06:38:19 T:4316 M:1927168000  NOTICE: CDVDPlayer::CloseFile()
  305. 06:38:19 T:4316 M:1927168000 WARNING: CDVDMessageQueue(player)::Put MSGQ_NOT_INITIALIZED
  306. 06:38:19 T:4316 M:1927168000  NOTICE: DVDPlayer: waiting for threads to exit
  307. 06:38:19 T:4316 M:1927168000  NOTICE: DVDPlayer: finished waiting
  308. 06:39:10 T:1296 M:1856462848 WARNING: XFILE::CFileCurl::CReadState::FillBuffer: curl failed with code 22
  309. 06:39:10 T:1296 M:1856147456   ERROR: CFileCurl::CReadState::Open, didn't get any data from stream.
  310. 06:39:49 T:4316 M:1862623232  NOTICE: DVDPlayer: Opening: http://192.168.1.102:63478/pbskids-abf66076-b39d-48f2-9f38-c81e87763ff1/1-pbskids-abf66076-b39d-48f2-9f38-c81e87763ff1.mpg
  311. 06:39:49 T:4316 M:1862623232 WARNING: CDVDMessageQueue(player)::Put MSGQ_NOT_INITIALIZED
  312. 06:39:49 T:1072 M:1862623232  NOTICE: Creating InputStream
  313. 06:40:10 T:1072 M:1928474624 WARNING: XFILE::CFileCurl::CReadState::FillBuffer: curl failed with code 28
  314. 06:40:10 T:1072 M:1928474624   ERROR: CFileCurl::CReadState::Open, didn't get any data from stream.
  315. 06:40:10 T:1072 M:1928474624   ERROR: XFILE::CFileCache::Open - failed to open source <http://192.168.1.102:63478/pbskids-abf66076-b39d-48f2-9f38-c81e87763ff1/1-pbskids-abf66076-b39d-48f2-9f38-c81e87763ff1.mpg>
  316. 06:40:10 T:1072 M:1928486912   ERROR: CDVDPlayer::OpenInputStream - error opening [http://192.168.1.102:63478/pbskids-abf66076-b39d-48f2-9f38-c81e87763ff1/1-pbskids-abf66076-b39d-48f2-9f38-c81e87763ff1.mpg]
  317. 06:40:10 T:1072 M:1928486912  NOTICE: CDVDPlayer::OnExit()
  318. 06:40:10 T:1072 M:1928486912  NOTICE: CDVDPlayer::OnExit() deleting input stream
  319. 06:40:10 T:4316 M:1928507392   ERROR: Playlist Player: skipping unplayable item: 0, path [http://192.168.1.102:63478/pbskids-abf66076-b39d-48f2-9f38-c81e87763ff1/1-pbskids-abf66076-b39d-48f2-9f38-c81e87763ff1.mpg]
  320. 06:40:10 T:4316 M:1928503296  NOTICE: CDVDPlayer::CloseFile()
  321. 06:40:10 T:4316 M:1928503296 WARNING: CDVDMessageQueue(player)::Put MSGQ_NOT_INITIALIZED
  322. 06:40:10 T:4316 M:1928503296  NOTICE: DVDPlayer: waiting for threads to exit
  323. 06:40:10 T:4316 M:1928503296  NOTICE: DVDPlayer: finished waiting
  324. 06:40:57 T:4316 M:1968136192  NOTICE: DVDPlayer: Opening: http://192.168.1.102:63478/pbskids-d1d60fe1-206a-496d-a3be-f8b70052a60d/1-pbskids-d1d60fe1-206a-496d-a3be-f8b70052a60d.mpg
  325. 06:40:57 T:4316 M:1968136192 WARNING: CDVDMessageQueue(player)::Put MSGQ_NOT_INITIALIZED
  326. 06:40:57 T:3004 M:1968136192  NOTICE: Creating InputStream
  327. 06:41:23 T:3004 M:1912496128 WARNING: XFILE::CFileCurl::CReadState::FillBuffer: curl failed with code 28
  328. 06:41:23 T:3004 M:1912496128   ERROR: CFileCurl::CReadState::Open, didn't get any data from stream.
  329. 06:41:23 T:3004 M:1912496128   ERROR: XFILE::CFileCache::Open - failed to open source <http://192.168.1.102:63478/pbskids-d1d60fe1-206a-496d-a3be-f8b70052a60d/1-pbskids-d1d60fe1-206a-496d-a3be-f8b70052a60d.mpg>
  330. 06:41:23 T:3004 M:1912508416   ERROR: CDVDPlayer::OpenInputStream - error opening [http://192.168.1.102:63478/pbskids-d1d60fe1-206a-496d-a3be-f8b70052a60d/1-pbskids-d1d60fe1-206a-496d-a3be-f8b70052a60d.mpg]
  331. 06:41:23 T:3004 M:1912508416  NOTICE: CDVDPlayer::OnExit()
  332. 06:41:23 T:3004 M:1912508416  NOTICE: CDVDPlayer::OnExit() deleting input stream
  333. 06:41:23 T:4316 M:1912496128   ERROR: Playlist Player: skipping unplayable item: 0, path [http://192.168.1.102:63478/pbskids-d1d60fe1-206a-496d-a3be-f8b70052a60d/1-pbskids-d1d60fe1-206a-496d-a3be-f8b70052a60d.mpg]
  334. 06:41:23 T:4316 M:1912492032  NOTICE: CDVDPlayer::CloseFile()
  335. 06:41:23 T:4316 M:1912492032 WARNING: CDVDMessageQueue(player)::Put MSGQ_NOT_INITIALIZED
  336. 06:41:23 T:4316 M:1912492032  NOTICE: DVDPlayer: waiting for threads to exit
  337. 06:41:23 T:4316 M:1912492032  NOTICE: DVDPlayer: finished waiting
  338. 06:41:38 T:4316 M:1879306240  NOTICE: DVDPlayer: Opening: http://192.168.1.102:63478/pbskids-fe3cb79f-8cea-49c9-9a64-b5fce66339ff/1-pbskids-fe3cb79f-8cea-49c9-9a64-b5fce66339ff.mpg
  339. 06:41:38 T:4316 M:1879306240 WARNING: CDVDMessageQueue(player)::Put MSGQ_NOT_INITIALIZED
  340. 06:41:38 T:5244 M:1879306240  NOTICE: Creating InputStream
  341. 06:42:04 T:5244 M:1929310208 WARNING: XFILE::CFileCurl::CReadState::FillBuffer: curl failed with code 28
  342. 06:42:04 T:5244 M:1929310208   ERROR: CFileCurl::CReadState::Open, didn't get any data from stream.
  343. 06:42:04 T:5244 M:1929310208   ERROR: XFILE::CFileCache::Open - failed to open source <http://192.168.1.102:63478/pbskids-fe3cb79f-8cea-49c9-9a64-b5fce66339ff/1-pbskids-fe3cb79f-8cea-49c9-9a64-b5fce66339ff.mpg>
  344. 06:42:04 T:5244 M:1929326592   ERROR: CDVDPlayer::OpenInputStream - error opening [http://192.168.1.102:63478/pbskids-fe3cb79f-8cea-49c9-9a64-b5fce66339ff/1-pbskids-fe3cb79f-8cea-49c9-9a64-b5fce66339ff.mpg]
  345. 06:42:04 T:5244 M:1929326592  NOTICE: CDVDPlayer::OnExit()
  346. 06:42:04 T:5244 M:1929326592  NOTICE: CDVDPlayer::OnExit() deleting input stream
  347. 06:42:04 T:4316 M:1929318400   ERROR: Playlist Player: skipping unplayable item: 0, path [http://192.168.1.102:63478/pbskids-fe3cb79f-8cea-49c9-9a64-b5fce66339ff/1-pbskids-fe3cb79f-8cea-49c9-9a64-b5fce66339ff.mpg]
  348. 06:42:04 T:4316 M:1929314304  NOTICE: CDVDPlayer::CloseFile()
  349. 06:42:04 T:4316 M:1929314304 WARNING: CDVDMessageQueue(player)::Put MSGQ_NOT_INITIALIZED
  350. 06:42:04 T:4316 M:1929314304  NOTICE: DVDPlayer: waiting for threads to exit
  351. 06:42:04 T:4316 M:1929314304  NOTICE: DVDPlayer: finished waiting
  352. 06:42:30 T:5172 M:1887334400 WARNING: XFILE::CFileCurl::CReadState::FillBuffer: curl failed with code 22
  353. 06:42:30 T:5172 M:1887334400   ERROR: CFileCurl::CReadState::Open, didn't get any data from stream.
  354. 06:43:36 T:4316 M:1857888256  NOTICE: DVDPlayer: Opening: http://192.168.1.102:63478/pbskids-39ca7dd7-efc7-4a15-b74f-9d91636577c7/1-pbskids-39ca7dd7-efc7-4a15-b74f-9d91636577c7.mpg
  355. 06:43:36 T:4316 M:1857888256 WARNING: CDVDMessageQueue(player)::Put MSGQ_NOT_INITIALIZED
  356. 06:43:36 T:2352 M:1857863680  NOTICE: Creating InputStream
  357. 06:43:59 T:2352 M:1928536064 WARNING: XFILE::CFileCurl::CReadState::FillBuffer: curl failed with code 28
  358. 06:43:59 T:2352 M:1928536064   ERROR: CFileCurl::CReadState::Open, didn't get any data from stream.
  359. 06:43:59 T:2352 M:1928536064   ERROR: XFILE::CFileCache::Open - failed to open source <http://192.168.1.102:63478/pbskids-39ca7dd7-efc7-4a15-b74f-9d91636577c7/1-pbskids-39ca7dd7-efc7-4a15-b74f-9d91636577c7.mpg>
  360. 06:43:59 T:2352 M:1928548352   ERROR: CDVDPlayer::OpenInputStream - error opening [http://192.168.1.102:63478/pbskids-39ca7dd7-efc7-4a15-b74f-9d91636577c7/1-pbskids-39ca7dd7-efc7-4a15-b74f-9d91636577c7.mpg]
  361. 06:43:59 T:2352 M:1928548352  NOTICE: CDVDPlayer::OnExit()
  362. 06:43:59 T:2352 M:1928548352  NOTICE: CDVDPlayer::OnExit() deleting input stream
  363. 06:43:59 T:4316 M:1928564736   ERROR: Playlist Player: skipping unplayable item: 0, path [http://192.168.1.102:63478/pbskids-39ca7dd7-efc7-4a15-b74f-9d91636577c7/1-pbskids-39ca7dd7-efc7-4a15-b74f-9d91636577c7.mpg]
  364. 06:43:59 T:4316 M:1928560640  NOTICE: CDVDPlayer::CloseFile()
  365. 06:43:59 T:4316 M:1928560640 WARNING: CDVDMessageQueue(player)::Put MSGQ_NOT_INITIALIZED
  366. 06:43:59 T:4316 M:1928560640  NOTICE: DVDPlayer: waiting for threads to exit
  367. 06:43:59 T:4316 M:1928560640  NOTICE: DVDPlayer: finished waiting
  368. 06:44:14 T:4316 M:1881243648  NOTICE: DVDPlayer: Opening: http://192.168.1.102:63478/pbskids-a8a7d340-6ab9-4970-8245-0ca89ad4beb3/1-pbskids-a8a7d340-6ab9-4970-8245-0ca89ad4beb3.mpg
  369. 06:44:14 T:4316 M:1881243648 WARNING: CDVDMessageQueue(player)::Put MSGQ_NOT_INITIALIZED
  370. 06:44:14 T:2108 M:1881243648  NOTICE: Creating InputStream
  371. 06:44:46 T:2108 M:1897996288  NOTICE: Creating Demuxer
  372. 06:44:51 T:2108 M:1870839808  NOTICE: Opening video stream: 0 source: 256
  373. 06:44:51 T:2108 M:1870835712  NOTICE: Creating video codec with codec id: 2
  374. 06:44:51 T:2108 M:1870786560  NOTICE: CDVDVideoCodecFFmpeg::Open() Using codec: MPEG-2 video
  375. 06:44:51 T:2108 M:1870786560  NOTICE: Creating video thread
  376. 06:44:51 T:2108 M:1870786560  NOTICE: Opening audio stream: 1 source: 256
  377. 06:44:51 T:2108 M:1870786560  NOTICE: Finding audio codec for: 86016
  378. 06:44:51 T:2108 M:1870770176  NOTICE: Creating audio thread
  379. 06:44:51 T:2016 M:1870770176  NOTICE: running thread: CDVDPlayerAudio::Process()
  380. 06:44:51 T:2016 M:1870770176  NOTICE: Creating audio device with codec id: 86016, channels: 2, sample rate: 44100, no pass-through
  381. 06:44:51 T:860 M:1866432512  NOTICE: running thread: video_thread
  382. 06:44:51 T:860 M:1866428416  NOTICE:  fps: 29.970030, pwidth: 480, pheight: 360, dwidth: 480, dheight: 360
  383. 06:44:51 T:860 M:1866428416  NOTICE: Display resolution DESKTOP : 1920x1080 @ 59.94 - Full Screen (12)
  384. 07:17:45 T:4316 M:1930055680  NOTICE: DVDPlayer: Opening: http://192.168.1.102:63478/pbskids-43c62f52-d328-4e0c-b1ab-6a3b679e8c82/1-pbskids-43c62f52-d328-4e0c-b1ab-6a3b679e8c82.mpg
  385. 07:17:45 T:4316 M:1930055680  NOTICE: CDVDPlayer::CloseFile()
  386. 07:17:45 T:4316 M:1930055680  NOTICE: DVDPlayer: waiting for threads to exit
  387. 07:17:45 T:2108 M:1930055680  NOTICE: CDVDPlayer::OnExit()
  388. 07:17:45 T:2108 M:1930055680  NOTICE: DVDPlayer: closing audio stream
  389. 07:17:45 T:2108 M:1930055680  NOTICE: Closing audio stream
  390. 07:17:45 T:2108 M:1930055680  NOTICE: Waiting for audio thread to exit
  391. 07:17:45 T:2016 M:1930055680   ERROR: CDVDAudio::AddPackets - failed to add leftover bytes to render
  392. 07:17:45 T:2016 M:1930055680  NOTICE: thread end: CDVDPlayerAudio::OnExit()
  393. 07:17:45 T:2108 M:1930067968  NOTICE: Closing audio device
  394. 07:17:45 T:2108 M:1930067968  NOTICE: Deleting audio codec
  395. 07:17:45 T:2108 M:1930067968  NOTICE: DVDPlayer: closing video stream
  396. 07:17:45 T:2108 M:1930067968  NOTICE: Closing video stream
  397. 07:17:45 T:2108 M:1930067968  NOTICE: waiting for video thread to exit
  398. 07:17:45 T:860 M:1930067968  NOTICE: thread end: video_thread
  399. 07:17:45 T:2108 M:1933926400  NOTICE: deleting video codec
  400. 07:17:45 T:2108 M:1934950400  NOTICE: CDVDPlayer::OnExit() deleting demuxer
  401. 07:17:45 T:2108 M:1935212544  NOTICE: CDVDPlayer::OnExit() deleting input stream
  402. 07:17:45 T:4316 M:1945731072  NOTICE: DVDPlayer: finished waiting
  403. 07:17:45 T:4316 M:1946161152 WARNING: CDVDMessageQueue(player)::Put MSGQ_NOT_INITIALIZED
  404. 07:17:45 T:1112 M:1946230784  NOTICE: Creating InputStream
  405. 07:17:52 T:1112 M:1860337664  NOTICE: Creating Demuxer
  406. 07:17:57 T:1112 M:1826537472  NOTICE: Opening video stream: 0 source: 256
  407. 07:17:57 T:1112 M:1826537472  NOTICE: Creating video codec with codec id: 2
  408. 07:17:57 T:1112 M:1826537472  NOTICE: CDVDVideoCodecFFmpeg::Open() Using codec: MPEG-2 video
  409. 07:17:57 T:1112 M:1826537472  NOTICE: Creating video thread
  410. 07:17:57 T:1112 M:1826537472  NOTICE: Opening audio stream: 1 source: 256
  411. 07:17:57 T:1112 M:1826537472  NOTICE: Finding audio codec for: 86016
  412. 07:17:57 T:1112 M:1826537472  NOTICE: Creating audio thread
  413. 07:17:57 T:4204 M:1826537472  NOTICE: running thread: CDVDPlayerAudio::Process()
  414. 07:17:57 T:4204 M:1826537472  NOTICE: Creating audio device with codec id: 86016, channels: 2, sample rate: 44100, no pass-through
  415. 07:17:57 T:2752 M:1827504128  NOTICE: running thread: video_thread
  416. 07:17:57 T:2752 M:1825820672  NOTICE:  fps: 29.970030, pwidth: 480, pheight: 360, dwidth: 480, dheight: 360
  417. 07:17:57 T:2752 M:1822515200 WARNING: CRenderManager::Configure - timeout waiting for previous frame
  418. 07:17:57 T:2752 M:1822515200  NOTICE: Display resolution DESKTOP : 1920x1080 @ 59.94 - Full Screen (12)
  419. 07:45:01 T:4204 M:1933299712 WARNING: CDVDMessageQueue(audio)::Get - asked for new data packet, with nothing available
  420. 07:45:02 T:2752 M:1933451264 WARNING: CDVDMessageQueue(video)::Get - asked for new data packet, with nothing available
  421. 07:45:02 T:1112 M:1933422592  NOTICE: CDVDPlayer::OnExit()
  422. 07:45:02 T:1112 M:1933422592  NOTICE: DVDPlayer: eof, waiting for queues to empty
  423. 07:45:02 T:1112 M:1933422592  NOTICE: DVDPlayer: closing audio stream
  424. 07:45:02 T:1112 M:1933422592  NOTICE: Closing audio stream
  425. 07:45:02 T:1112 M:1933422592  NOTICE: CDVDMessageQueue(audio)::WaitUntilEmpty
  426. 07:45:02 T:4204 M:1933422592  NOTICE: thread end: CDVDPlayerAudio::OnExit()
  427. 07:45:02 T:1112 M:1933434880  NOTICE: Waiting for audio thread to exit
  428. 07:45:02 T:1112 M:1933434880  NOTICE: Closing audio device
  429. 07:45:02 T:1112 M:1933434880  NOTICE: Deleting audio codec
  430. 07:45:02 T:1112 M:1933434880  NOTICE: DVDPlayer: closing video stream
  431. 07:45:02 T:1112 M:1933434880  NOTICE: Closing video stream
  432. 07:45:02 T:1112 M:1933434880  NOTICE: CDVDMessageQueue(video)::WaitUntilEmpty
  433. 07:45:02 T:1112 M:1933434880  NOTICE: waiting for video thread to exit
  434. 07:45:02 T:2752 M:1933434880   ERROR: Got MSGQ_ABORT or MSGO_IS_ERROR return true
  435. 07:45:02 T:2752 M:1933434880  NOTICE: thread end: video_thread
  436. 07:45:02 T:1112 M:1933479936  NOTICE: deleting video codec
  437. 07:45:02 T:1112 M:1934512128  NOTICE: CDVDPlayer::OnExit() deleting demuxer
  438. 07:45:02 T:1112 M:1934704640  NOTICE: CDVDPlayer::OnExit() deleting input stream
  439. 07:45:02 T:4316 M:1942855680  NOTICE: CDVDPlayer::CloseFile()
  440. 07:45:02 T:4316 M:1942851584 WARNING: CDVDMessageQueue(player)::Put MSGQ_NOT_INITIALIZED
  441. 07:45:02 T:4316 M:1942851584  NOTICE: DVDPlayer: waiting for threads to exit
  442. 07:45:02 T:4316 M:1942851584  NOTICE: DVDPlayer: finished waiting
  443. 09:22:31 T:5900 M:1713561600 WARNING: XFILE::CFileCurl::CReadState::FillBuffer: curl failed with code 22
  444. 09:22:31 T:5900 M:1713405952   ERROR: CFileCurl::CReadState::Open, didn't get any data from stream.
  445. 09:22:43 T:3028 M:1696419840  NOTICE: CDVDVideoCodecFFmpeg::Open() Using codec: MPEG-4 part 2 Microsoft variant version 3
  446. 09:22:43 T:3256 M:1703370752  NOTICE: CDVDVideoCodecFFmpeg::Open() Using codec: MPEG-4 part 2
  447. 09:43:59 T:3752 M:1360338944  NOTICE: Previous line repeats 5 times.
  448. 09:43:59 T:3752 M:1360338944   ERROR: InputStream: Error opening, C:\Users\WebTV\Videos\Movies\Hanna (2011).avi
  449. 09:44:09 T:4008 M:1359474688 WARNING: XFILE::CFileCurl::CReadState::FillBuffer: curl failed with code 22
  450. 09:44:09 T:4008 M:1359474688   ERROR: CFileCurl::CReadState::Open, didn't get any data from stream.
  451. 10:12:57 T:4016 M:1287958528 WARNING: XFILE::CFileFactory::CreateLoader - Unsupported protocol(addons) in addons://more/executable.tbn
  452. 10:13:17 T:1376 M:1311281152  NOTICE: -->Python Interpreter Initialized<--
  453. 10:13:22 T:3648 M:1306935296  NOTICE: -->Python Interpreter Initialized<--
  454. 10:13:36 T:3648 M:1315307520   ERROR: Error Type: exceptions.UnboundLocalError
  455. 10:13:36 T:3648 M:1315307520   ERROR: Error Contents: local variable 'con' referenced before assignment
  456. 10:13:36 T:3648 M:1315307520   ERROR: Traceback (most recent call last):
  457.                                               File "C:\Users\WebTV\AppData\Roaming\XBMC\addons\plugin.audio.google.listen\addon.py", line 271, in ?
  458.                                                 Main()
  459.                                               File "C:\Users\WebTV\AppData\Roaming\XBMC\addons\plugin.audio.google.listen\addon.py", line 40, in __init__
  460.                                                 self.MYLIST()
  461.                                               File "C:\Users\WebTV\AppData\Roaming\XBMC\addons\plugin.audio.google.listen\addon.py", line 146, in MYLIST
  462.                                                 request.add_header('Authorization', 'GoogleLogin auth=%s' % self.AUTH())
  463.                                               File "C:\Users\WebTV\AppData\Roaming\XBMC\addons\plugin.audio.google.listen\addon.py", line 180, in AUTH
  464.                                                 con.close()
  465.                                             UnboundLocalError: local variable 'con' referenced before assignment
  466. 10:13:36 T:4316 M:1315291136   ERROR: XFILE::CDirectory::GetDirectory - Error getting plugin://plugin.audio.google.listen/?action=mylist&title=My subscriptions
  467. 10:13:36 T:4316 M:1315291136   ERROR: CGUIMediaWindow::GetDirectory(plugin://plugin.audio.google.listen/?action=mylist&title=My subscriptions) failed
  468.  
  469.